METAR Data
IDs: Format: Raw Decoded Include TAF

Data at: 0810 UTC 03 Aug 2021

KCCR 030753Z AUTO 19007KT 10SM CLR 17/11 A3001 RMK AO2 SLP149 T01670106 403280150
KCCR 030653Z AUTO 22006KT 10SM CLR 18/10 A3001 RMK AO2 SLP149 T01780100
KCCR 030553Z 18004KT 10SM CLR 19/10 A3001 RMK AO2 SLP149 T01890100 10328 20183 50008
KCCR 030453Z 28006KT 10SM CLR 21/10 A3001 RMK AO2 SLP150 T02110100
KCCR 030353Z 27008KT 10SM CLR 22/10 A3000 RMK AO2 SLP145 T02220100
KCCR 030253Z 28008KT 10SM CLR 25/09 A2999 RMK AO2 SLP141 T02500089 55002
KCCR 030153Z 32010KT 10SM CLR 28/11 A2998 RMK AO2 SLP138 T02830106
KCCR 030053Z 32011KT 10SM CLR 31/10 A2999 RMK AO2 SLP142 T03110100
KCCR 022353Z 26008KT 10SM CLR 32/03 A2999 RMK AO2 SLP143 T03220028 10328 20217 58016
KCCR 022253Z 25010KT 10SM CLR 32/01 A3001 RMK AO2 SLP150 T03170011
KCCR 022153Z 30012KT 10SM CLR 31/04 A3002 RMK AO2 WSHFT 2116 SLP154 T03110039
KCCR 022136Z 30012KT 10SM CLR 32/06 A3003 RMK AO2 WSHFT 2116 T03170061
KCCR 022053Z 33015KT 10SM CLR 28/10 A3004 RMK AO2 SLP159 T02830100 58017
KCCR 021953Z 33012KT 10SM CLR 27/11 A3006 RMK AO2 SLP167 T02720111
KCCR 021853Z 33014KT 10SM CLR 24/11 A3008 RMK AO2 SLP173 T02440111
KCCR 021753Z 30006KT 10SM CLR 22/11 A3009 RMK AO2 SLP176 T02170111 10222 20150 58005
KCCR 021653Z 25010KT 10SM CLR 20/11 A3010 RMK AO2 SLP179 T02000111
KCCR 021553Z 26010KT 10SM CLR 18/11 A3011 RMK AO2 SLP182 T01830111
KCCR 021453Z 25010KT 10SM SCT015 17/12 A3011 RMK AO2 SLP181 T01670117 51013
KCCR 021353Z 23006KT 10SM SCT015 16/12 A3010 RMK AO2 SLP179 T01560117
KCCR 021253Z AUTO 24007KT 10SM CLR 15/12 A3008 RMK AO2 SLP172 T01500117
KCCR 021153Z AUTO 24007KT 10SM CLR 16/12 A3007 RMK AO2 SLP168 T01560117 10167 20156 56002
KCCR 021053Z AUTO 22005KT 10SM CLR 16/12 A3007 RMK AO2 SLP168 T01560117
KCCR 020953Z AUTO 23006KT 10SM CLR 16/12 A3007 RMK AO2 SLP168 T01610117
KCCR 020853Z AUTO 24007KT 10SM CLR 16/12 A3008 RMK AO2 SLP171 T01610117 50000
KCCR 020753Z AUTO 24009KT 10SM CLR 16/12 A3008 RMK AO2 SLP172 T01610117 402890150
KCCR 020653Z AUTO 23010KT 10SM CLR 17/12 A3008 RMK AO2 SLP172 T01670117
KCCR 020553Z AUTO 26009KT 10SM CLR 17/12 A3007 RMK AO2 SLP170 T01670117 10278 20167 51017
KCCR 020453Z 26007KT 10SM CLR 17/12 A3006 RMK AO2 SLP166 T01720117
KCCR 020353Z 24015KT 10SM CLR 18/11 A3005 RMK AO2 SLP160 T01830111
KCCR 020253Z 22010KT 10SM CLR 20/11 A3002 RMK AO2 SLP153 T02000106 53008
KCCR 020153Z 23012KT 10SM CLR 22/11 A3001 RMK AO2 SLP147 T02170106
KCCR 020053Z 25010KT 10SM CLR 26/11 A3000 RMK AO2 SLP145 T02560106
KCCR 012353Z 24011KT 10SM CLR 28/10 A3000 RMK AO2 SLP145 T02780100 10289 20222 58006
KCCR 012253Z 26010KT 10SM CLR 28/12 A3001 RMK AO2 SLP148 T02830122
KCCR 012153Z 29012KT 10SM CLR 28/12 A3001 RMK AO2 SLP150 T02780117
KCCR 012053Z 26010KT 10SM CLR 28/10 A3002 RMK AO2 SLP151 T02830100 56011